Aviation Digital Data Service (ADDS)

Output produced by METARs form (1606 UTC 30 October 2020)
found at http://www.aviationweather.gov/metar/data/
 
KATL 301552Z 33020G26KT 10SM FEW028 14/06 A3013 RMK AO2 PK WND 32029/1524 SLP204 T01440061
KATL 301554Z 3016/3118 33018G28KT P6SM SCT025 
     FM301900 34012G20KT P6SM SKC 
     FM310000 35010KT P6SM SKC 
     FM310400 03006KT P6SM SKC 
     FM310800 07008KT P6SM SKC